Time;durP1;ratioP1;P1;durP2;ratioP2;P2;SDS_P1;SDS_P2;PMS_P1;PMS_P2;Temp;Humidity;BMP_temperature;BMP_pressure;BME280_temperature;BME280_humidity;BME280_pressure;Samples;Min_cycle;Max_cycle;Signal;HPM_P1;HPM_P2
2022/06/03 00:01:23;;;;;;;;;;;;;;;13.45;78.91;101975.94;4971804;28;19919;-30
2022/06/03 00:03:54;;;;;;;;;;;;;;;13.43;78.81;101967.16;4968317;28;19953;-31
2022/06/03 00:06:19;;;;;;;;;;;;;;;13.42;78.76;101965.47;4977672;28;19981;-30
2022/06/03 00:09:03;;;;;;;;;;;;;;;13.39;78.66;101967.50;4976123;28;19918;-31
2022/06/03 00:11:44;;;;;;;;;;;;;;;13.37;78.61;101974.94;4970529;29;19922;-31
2022/06/03 00:14:28;;;;;;;;;;;;;;;13.38;78.47;101967.69;4971487;28;19918;-31
2022/06/03 00:17:19;;;;;;;;;;;;;;;13.34;78.50;101967.19;4982233;28;19906;-31
2022/06/03 00:20:03;;;;;;;;;;;;;;;13.37;78.29;101963.28;4965224;28;19958;-33
2022/06/03 00:22:34;;;;;;;;;;;;;;;13.34;78.38;101959.06;4971361;28;19999;-31
2022/06/03 00:25:03;;;;;;;;;;;;;;;13.35;78.12;101960.78;4967655;28;20344;-31
2022/06/03 00:27:34;;;;;;;;;;;;;;;13.34;78.01;101961.78;4984573;28;20006;-31
2022/06/03 00:30:17;;;;;;;;;;;;;;;13.28;78.21;101957.06;4969855;28;20013;-30
2022/06/03 00:32:52;;;;;;;;;;;;;;;13.29;77.79;101961.44;4974855;28;19918;-30
2022/06/03 00:35:30;;;;;;;;;;;;;;;13.24;77.86;101958.38;4972658;28;19925;-31
2022/06/03 00:38:04;;;;;;;;;;;;;;;13.27;77.82;101962.63;4973496;28;20409;-31
2022/06/03 00:40:48;;;;;;;;;;;;;;;13.28;77.45;101953.53;4964028;28;19958;-30
2022/06/03 00:43:16;;;;;;;;;;;;;;;13.26;77.60;101959.09;4973971;28;19914;-31
2022/06/03 00:45:57;;;;;;;;;;;;;;;13.23;77.46;101961.28;4975191;28;20016;-30
2022/06/03 00:48:42;;;;;;;;;;;;;;;13.21;77.54;101955.19;4974694;28;19918;-30
2022/06/03 00:51:10;;;;;;;;;;;;;;;13.18;77.38;101950.97;4973635;28;19989;-31
2022/06/03 00:53:38;;;;;;;;;;;;;;;13.14;77.36;101958.59;4981553;28;20041;-30
2022/06/03 00:56:24;;;;;;;;;;;;;;;13.14;77.20;101952.34;4970929;29;19918;-31
2022/06/03 00:58:52;;;;;;;;;;;;;;;13.12;77.41;101951.66;4986262;28;19918;-30
2022/06/03 01:01:23;;;;;;;;;;;;;;;13.05;77.11;101950.66;4989788;28;19929;-30
2022/06/03 01:03:54;;;;;;;;;;;;;;;13.05;77.19;101948.78;4982678;28;19930;-30
2022/06/03 01:06:22;;;;;;;;;;;;;;;13.08;76.95;101953.84;4979277;28;19949;-32
2022/06/03 01:09:07;;;;;;;;;;;;;;;13.06;76.66;101950.50;4975010;28;19925;-31
2022/06/03 01:11:50;;;;;;;;;;;;;;;13.06;76.54;101949.63;4971366;29;19953;-31
2022/06/03 01:14:22;;;;;;;;;;;;;;;13.03;76.39;101945.41;4983764;28;19981;-30
2022/06/03 01:16:56;;;;;;;;;;;;;;;12.99;76.51;101948.66;4982805;28;20077;-32
2022/06/03 01:19:40;;;;;;;;;;;;;;;12.99;76.42;101943.25;4983021;28;19922;-31
2022/06/03 01:22:05;;;;;;;;;;;;;;;12.95;76.33;101943.59;4974408;28;19925;-31
2022/06/03 01:24:46;;;;;;;;;;;;;;;12.93;76.50;101942.91;4988917;28;19968;-31
2022/06/03 01:27:16;;;;;;;;;;;;;;;12.94;76.29;101944.59;4977468;28;19976;-30
2022/06/03 01:29:47;;;;;;;;;;;;;;;12.93;76.03;101940.22;4959977;28;19918;-31
2022/06/03 01:32:31;;;;;;;;;;;;;;;12.91;76.00;101936.81;4972167;28;19965;-30
2022/06/03 01:35:03;;;;;;;;;;;;;;;12.89;75.94;101933.44;4970097;28;19994;-31
2022/06/03 01:37:33;;;;;;;;;;;;;;;12.90;75.95;101928.88;4954799;29;19930;-31
2022/06/03 01:40:01;;;;;;;;;;;;;;;12.85;75.73;101921.31;4953925;29;19906;-31
2022/06/03 01:42:27;;;;;;;;;;;;;;;12.87;75.71;101924.66;4962822;29;19940;-32
2022/06/03 01:45:04;;;;;;;;;;;;;;;12.88;75.75;101925.53;4959835;29;20426;-30
2022/06/03 01:47:30;;;;;;;;;;;;;;;12.86;75.77;101917.56;4962536;29;19937;-31
2022/06/03 01:50:13;;;;;;;;;;;;;;;12.86;75.70;101931.09;4971656;29;19922;-30
2022/06/03 01:52:39;;;;;;;;;;;;;;;12.87;75.54;101930.06;4968684;29;19925;-30
2022/06/03 01:55:23;;;;;;;;;;;;;;;12.84;75.62;101925.00;4964259;29;19997;-31
2022/06/03 01:57:56;;;;;;;;;;;;;;;12.84;75.58;101926.88;4954422;29;20512;-32
2022/06/03 02:00:37;;;;;;;;;;;;;;;12.86;75.58;101925.69;4966548;29;19930;-31
2022/06/03 02:03:08;;;;;;;;;;;;;;;12.87;75.16;101919.25;4963009;29;19925;-30
2022/06/03 02:05:39;;;;;;;;;;;;;;;12.84;75.05;101919.59;4959877;29;20346;-31
2022/06/03 02:08:22;;;;;;;;;;;;;;;12.82;74.93;101926.19;4971178;29;19918;-31
2022/06/03 02:10:59;;;;;;;;;;;;;;;12.83;75.25;101922.50;4971049;29;19913;-31
2022/06/03 02:13:27;;;;;;;;;;;;;;;12.82;75.23;101921.66;4959181;29;19942;-31
2022/06/03 02:16:13;;;;;;;;;;;;;;;12.84;75.20;101919.59;4963866;29;19918;-31
2022/06/03 02:18:59;;;;;;;;;;;;;;;12.81;75.08;101919.94;4947020;29;20006;-31
2022/06/03 02:21:30;;;;;;;;;;;;;;;12.76;75.37;101926.88;4964615;29;19926;-31
2022/06/03 02:23:58;;;;;;;;;;;;;;;12.71;75.09;101917.41;4963967;29;19918;-31
2022/06/03 02:26:35;;;;;;;;;;;;;;;12.71;75.11;101919.28;4959980;29;19925;-31
2022/06/03 02:32:13;;;;;;;;;;;;;;;12.64;75.32;101911.03;4960405;29;19982;-30
2022/06/03 02:34:52;;;;;;;;;;;;;;;12.68;75.27;101906.13;4987108;23;19934;-29
2022/06/03 02:37:36;;;;;;;;;;;;;;;12.68;75.10;101904.25;4973519;29;20383;-30
2022/06/03 02:40:23;;;;;;;;;;;;;;;12.67;75.30;101896.34;4971215;29;19990;-29
2022/06/03 02:43:06;;;;;;;;;;;;;;;12.64;75.27;101902.06;4974005;29;19918;-31
2022/06/03 02:45:50;;;;;;;;;;;;;;;12.59;75.24;101901.75;4974441;29;19918;-31
2022/06/03 02:48:22;;;;;;;;;;;;;;;12.55;75.27;101901.22;4985070;28;19918;-31
2022/06/03 02:50:53;;;;;;;;;;;;;;;12.50;75.75;101901.72;4956871;29;19953;-31
2022/06/03 02:53:21;;;;;;;;;;;;;;;12.49;75.69;101893.81;4973861;29;19925;-29
2022/06/03 02:55:52;;;;;;;;;;;;;;;12.50;75.77;101890.06;4953612;29;19918;-31
2022/06/03 02:58:18;;;;;;;;;;;;;;;12.48;75.66;101890.25;4973258;29;19918;-31
2022/06/03 03:00:47;;;;;;;;;;;;;;;12.46;75.60;101884.19;4974463;28;19907;-31
2022/06/03 03:03:30;;;;;;;;;;;;;;;12.46;75.41;101877.94;4972876;29;19925;-31
2022/06/03 03:05:58;;;;;;;;;;;;;;;12.43;75.56;101879.13;4973233;29;19971;-29
2022/06/03 03:08:27;;;;;;;;;;;;;;;12.41;75.62;101875.75;4973484;29;19914;-30
2022/06/03 03:10:55;;;;;;;;;;;;;;;12.36;75.75;101880.81;4974069;29;19925;-30
2022/06/03 03:13:29;;;;;;;;;;;;;;;12.34;75.67;101877.41;4973704;29;19906;-30
2022/06/03 03:16:00;;;;;;;;;;;;;;;12.32;75.69;101873.19;4974306;29;19918;-29
2022/06/03 03:18:28;;;;;;;;;;;;;;;12.28;75.70;101865.44;4973057;29;19918;-30
2022/06/03 03:21:12;;;;;;;;;;;;;;;12.26;75.90;101861.22;4973281;29;19922;-32
2022/06/03 03:23:56;;;;;;;;;;;;;;;12.24;75.95;101856.00;4974094;29;20009;-31
2022/06/03 03:26:21;;;;;;;;;;;;;;;12.23;75.81;101857.00;4963087;28;20642;-32
2022/06/03 03:28:46;;;;;;;;;;;;;;;12.22;75.66;101859.88;4973660;29;19968;-31
2022/06/03 03:31:12;;;;;;;;;;;;;;;12.20;75.63;101862.75;4974281;29;19949;-31
2022/06/03 03:33:43;;;;;;;;;;;;;;;12.19;75.75;101861.06;4970257;28;19917;-31
2022/06/03 03:36:14;;;;;;;;;;;;;;;12.18;75.65;101858.53;4945716;29;20383;-32
2022/06/03 03:38:58;;;;;;;;;;;;;;;12.17;75.82;101859.53;4955051;29;19914;-32
2022/06/03 03:41:26;;;;;;;;;;;;;;;12.14;75.85;101857.16;4965211;29;19918;-31
2022/06/03 03:43:51;;;;;;;;;;;;;;;12.12;75.87;101864.59;4960742;29;19957;-32
2022/06/03 03:46:26;;;;;;;;;;;;;;;12.08;75.81;101856.84;4964014;29;19918;-31
2022/06/03 03:49:03;;;;;;;;;;;;;;;12.05;76.00;101853.63;4962010;29;19955;-31
2022/06/03 03:51:33;;;;;;;;;;;;;;;12.08;75.98;101855.97;4968419;29;19922;-32
2022/06/03 03:54:17;;;;;;;;;;;;;;;12.02;75.97;101857.50;4954897;29;19926;-32
2022/06/03 03:56:52;;;;;;;;;;;;;;;12.03;75.92;101856.50;4953609;29;19918;-32
2022/06/03 03:59:36;;;;;;;;;;;;;;;12.02;75.73;101860.19;4937228;29;19919;-33
2022/06/03 04:02:01;;;;;;;;;;;;;;;11.99;75.93;101854.28;4962150;29;19926;-31
2022/06/03 04:04:27;;;;;;;;;;;;;;;11.97;76.04;101851.75;4957095;29;19906;-32
2022/06/03 04:06:55;;;;;;;;;;;;;;;11.98;75.88;101852.59;4962764;29;19918;-31
2022/06/03 04:09:35;;;;;;;;;;;;;;;11.95;75.83;101859.16;4959557;29;19919;-32
2022/06/03 04:12:06;;;;;;;;;;;;;;;11.93;75.88;101845.00;4955114;29;19907;-32
2022/06/03 04:14:53;;;;;;;;;;;;;;;11.91;75.87;101849.72;4960971;29;19933;-32
2022/06/03 04:17:21;;;;;;;;;;;;;;;11.91;76.04;101844.34;4974212;29;19926;-33
2022/06/03 04:19:46;;;;;;;;;;;;;;;11.92;76.06;101843.31;4970337;29;19946;-32
2022/06/03 04:22:18;;;;;;;;;;;;;;;11.99;75.74;101838.94;4972364;29;19919;-31
2022/06/03 04:24:57;;;;;;;;;;;;;;;12.04;75.64;101839.28;4957929;29;19918;-31
2022/06/03 04:27:22;;;;;;;;;;;;;;;12.15;75.21;101837.28;4951822;29;19919;-28
2022/06/03 04:29:53;;;;;;;;;;;;;;;12.21;75.11;101832.03;4957644;29;20029;-31
2022/06/03 04:32:23;;;;;;;;;;;;;;;12.30;74.62;101830.19;4964369;29;19965;-30
2022/06/03 04:35:00;;;;;;;;;;;;;;;12.37;74.07;101836.59;4943423;29;20290;-31
2022/06/03 04:37:45;;;;;;;;;;;;;;;12.42;73.82;101834.22;4949174;29;19969;-31
2022/06/03 04:40:16;;;;;;;;;;;;;;;12.45;73.44;101833.91;4919769;29;19920;-29
2022/06/03 04:42:44;;;;;;;;;;;;;;;12.50;73.33;101836.06;4926234;29;20110;-32
2022/06/03 04:45:20;;;;;;;;;;;;;;;12.58;73.50;101827.13;4955147;29;19947;-32
2022/06/03 04:48:04;;;;;;;;;;;;;;;12.64;73.31;101842.66;4939377;29;19915;-31
2022/06/03 04:50:44;;;;;;;;;;;;;;;12.73;73.05;101842.47;4942823;29;19919;-32
2022/06/03 04:53:10;;;;;;;;;;;;;;;12.84;72.16;101846.66;4945290;29;19975;-31
2022/06/03 04:55:38;;;;;;;;;;;;;;;12.85;71.75;101837.56;4938214;29;19915;-32
2022/06/03 04:58:18;;;;;;;;;;;;;;;12.92;71.56;101827.72;4938155;29;19942;-32
2022/06/03 05:00:56;;;;;;;;;;;;;;;12.99;71.54;101835.16;4941137;29;19926;-32
2022/06/03 05:03:40;;;;;;;;;;;;;;;13.06;70.95;101834.28;4948553;29;19914;-31
2022/06/03 05:06:05;;;;;;;;;;;;;;;13.12;71.17;101830.03;4956867;29;19969;-32
2022/06/03 05:08:49;;;;;;;;;;;;;;;13.18;70.89;101826.63;4956069;29;20278;-32
2022/06/03 05:11:14;;;;;;;;;;;;;;;13.22;70.49;101829.81;4956120;29;19954;-33
2022/06/03 05:13:51;;;;;;;;;;;;;;;13.30;70.37;101825.25;4954741;29;19929;-32
2022/06/03 05:16:35;;;;;;;;;;;;;;;13.34;69.76;101834.69;4936201;29;19918;-31
2022/06/03 05:19:00;;;;;;;;;;;;;;;13.36;70.29;101832.66;4950429;29;19922;-32
2022/06/03 05:21:32;;;;;;;;;;;;;;;13.45;69.75;101835.31;4955536;29;19913;-32
2022/06/03 05:24:16;;;;;;;;;;;;;;;13.52;69.47;101825.50;4956239;29;19919;-31
2022/06/03 05:26:56;;;;;;;;;;;;;;;13.56;68.98;101832.22;4955184;29;19929;-31
2022/06/03 05:29:26;;;;;;;;;;;;;;;13.64;68.53;101824.09;4955644;29;19919;-31
2022/06/03 05:31:54;;;;;;;;;;;;;;;13.66;68.54;101832.00;4938795;29;19918;-31
2022/06/03 05:34:38;;;;;;;;;;;;;;;13.70;68.89;101828.75;4955827;29;19919;-32
2022/06/03 05:37:19;;;;;;;;;;;;;;;13.79;69.05;101824.13;4956746;29;19918;-32
2022/06/03 05:39:44;;;;;;;;;;;;;;;13.87;68.35;101815.13;4947084;29;19940;-31
2022/06/03 05:42:30;;;;;;;;;;;;;;;13.94;68.56;101821.50;4956548;29;19925;-31
2022/06/03 05:45:10;;;;;;;;;;;;;;;14.00;67.85;101827.03;4908123;29;20014;-30
2022/06/03 05:47:45;;;;;;;;;;;;;;;14.08;67.68;101826.13;4937910;29;19918;-29
2022/06/03 05:50:11;;;;;;;;;;;;;;;14.03;67.45;101825.81;4955336;29;19978;-30
2022/06/03 05:52:55;;;;;;;;;;;;;;;14.09;67.95;101833.25;4939203;29;19919;-31
2022/06/03 05:55:21;;;;;;;;;;;;;;;14.13;67.91;101829.13;4954178;29;19947;-32
2022/06/03 05:57:49;;;;;;;;;;;;;;;14.19;67.61;101828.44;4954631;29;19914;-31
2022/06/03 06:00:20;;;;;;;;;;;;;;;14.22;67.77;101828.06;4954156;29;19915;-31
2022/06/03 06:03:14;;;;;;;;;;;;;;;14.26;67.44;101829.38;4954492;29;19933;-31
2022/06/03 06:05:55;;;;;;;;;;;;;;;14.38;67.11;101828.94;4913564;29;19943;-31
2022/06/03 06:08:20;;;;;;;;;;;;;;;14.51;67.18;101829.16;4954350;29;19927;-29
2022/06/03 06:11:03;;;;;;;;;;;;;;;14.63;66.89;101827.69;4929824;29;19939;-32
2022/06/03 06:13:47;;;;;;;;;;;;;;;14.79;66.67;101836.69;4939304;29;19929;-31
2022/06/03 06:16:14;;;;;;;;;;;;;;;14.92;66.87;101842.31;4936067;29;19994;-31
2022/06/03 06:19:06;;;;;;;;;;;;;;;15.14;65.41;101833.25;4966054;29;20038;-32
2022/06/03 06:21:43;;;;;;;;;;;;;;;15.49;64.46;101838.06;4922322;29;19975;-31
2022/06/03 06:24:14;;;;;;;;;;;;;;;15.99;62.51;101842.63;4941578;29;19946;-31
2022/06/03 06:26:39;;;;;;;;;;;;;;;16.26;61.29;101844.78;4956128;29;19903;-31
2022/06/03 06:29:12;;;;;;;;;;;;;;;16.30;59.93;101846.91;4954667;29;20023;-30
2022/06/03 06:31:57;;;;;;;;;;;;;;;16.32;60.63;101842.09;4935925;29;19919;-31
2022/06/03 06:34:29;;;;;;;;;;;;;;;16.52;59.89;101846.88;4950767;29;19918;-31
2022/06/03 06:36:57;;;;;;;;;;;;;;;16.62;59.20;101844.66;4963557;29;19902;-31
2022/06/03 06:39:41;;;;;;;;;;;;;;;16.60;59.55;101844.00;4965113;29;19910;-30
2022/06/03 06:42:15;;;;;;;;;;;;;;;16.63;58.83;101843.59;4956085;29;19923;-30
2022/06/03 06:44:44;;;;;;;;;;;;;;;16.76;58.69;101843.69;4962051;29;19919;-30
2022/06/03 06:47:09;;;;;;;;;;;;;;;16.65;58.29;101831.50;4973962;29;19914;-31
2022/06/03 06:49:43;;;;;;;;;;;;;;;16.59;58.96;101839.63;4969305;29;20173;-31
2022/06/03 06:52:14;;;;;;;;;;;;;;;16.84;59.01;101834.59;4971543;29;19986;-31
2022/06/03 06:54:58;;;;;;;;;;;;;;;17.16;57.23;101824.94;4973827;29;19978;-30
2022/06/03 06:57:25;;;;;;;;;;;;;;;17.62;56.20;101826.19;4975691;29;19914;-31
2022/06/03 06:59:53;;;;;;;;;;;;;;;18.28;54.59;101820.03;4957481;29;19903;-33
2022/06/03 07:02:20;;;;;;;;;;;;;;;19.10;52.24;101817.84;4974257;29;19980;-31
2022/06/03 07:04:49;;;;;;;;;;;;;;;19.97;50.37;101823.75;4958013;29;19963;-31
2022/06/03 07:07:20;;;;;;;;;;;;;;;21.00;47.94;101817.81;4957991;29;19918;-30
2022/06/03 07:09:51;;;;;;;;;;;;;;;21.96;44.36;101827.13;4957105;29;20244;-32
2022/06/03 07:12:17;;;;;;;;;;;;;;;22.50;43.13;101816.16;4957425;29;19915;-32
2022/06/03 07:14:42;;;;;;;;;;;;;;;23.23;42.11;101825.78;4957710;29;19932;-32
2022/06/03 07:20:06;;;;;;;;;;;;;;;24.36;38.44;101822.41;4961540;29;19941;-32
2022/06/03 07:22:43;;;;;;;;;;;;;;;24.03;38.25;101824.03;4974988;29;19950;-32
2022/06/03 07:25:23;;;;;;;;;;;;;;;23.47;39.00;101826.53;4974279;29;19977;-32
2022/06/03 07:28:00;;;;;;;;;;;;;;;23.76;39.00;101823.81;4975388;29;19914;-32
2022/06/03 07:30:33;;;;;;;;;;;;;;;23.95;38.27;101840.94;4975145;29;19969;-32
2022/06/03 07:33:00;;;;;;;;;;;;;;;23.80;38.57;101842.34;4958020;28;19922;-31
2022/06/03 07:35:31;;;;;;;;;;;;;;;23.48;39.07;101830.13;4957707;29;19918;-32
2022/06/03 07:38:04;;;;;;;;;;;;;;;23.76;38.82;101830.16;4957568;29;19914;-32
2022/06/03 07:40:35;;;;;;;;;;;;;;;24.25;38.64;101829.63;4956889;28;19914;-31
2022/06/03 07:43:07;;;;;;;;;;;;;;;25.02;37.20;101830.84;4960667;29;20581;-32
2022/06/03 07:45:40;;;;;;;;;;;;;;;25.47;36.80;101838.88;4961418;29;19906;-31
2022/06/03 07:48:16;;;;;;;;;;;;;;;25.59;35.76;101825.78;4978323;29;19965;-31
2022/06/03 07:50:46;;;;;;;;;;;;;;;25.61;36.08;101825.50;4978747;29;19913;-31
2022/06/03 07:53:13;;;;;;;;;;;;;;;25.46;35.82;101822.56;4946709;29;19961;-31
2022/06/03 07:55:38;;;;;;;;;;;;;;;25.34;36.18;101822.72;4979519;29;19974;-32
2022/06/03 07:58:05;;;;;;;;;;;;;;;25.37;36.54;101819.44;4962344;29;19925;-32
2022/06/03 08:00:34;;;;;;;;;;;;;;;25.03;36.93;101819.53;4979022;29;19913;-32
2022/06/03 08:03:00;;;;;;;;;;;;;;;24.91;37.21;101816.09;4961964;29;19942;-30
2022/06/03 08:05:25;;;;;;;;;;;;;;;25.38;36.36;101812.84;4979592;29;19991;-32
2022/06/03 08:13:19;;;;;;;;;;;;;;;25.06;36.61;101798.91;4977030;29;19929;-31
2022/06/03 08:15:50;;;;;;;;;;;;;;;25.02;36.89;101789.53;4977733;29;19914;-32
2022/06/03 08:18:16;;;;;;;;;;;;;;;24.96;37.26;101783.09;4977735;29;19903;-31
2022/06/03 08:20:52;;;;;;;;;;;;;;;25.05;36.72;101786.25;4961272;29;19909;-30
2022/06/03 08:23:18;;;;;;;;;;;;;;;24.74;36.83;101789.41;4961228;29;20376;-31
2022/06/03 08:25:44;;;;;;;;;;;;;;;24.58;37.38;101793.03;4977468;29;19949;-33
2022/06/03 08:28:11;;;;;;;;;;;;;;;24.91;37.34;101788.56;4978476;29;19918;-31
2022/06/03 08:30:36;;;;;;;;;;;;;;;25.56;36.82;101786.84;4960926;29;20001;-30
2022/06/03 08:33:03;;;;;;;;;;;;;;;25.82;35.17;101774.16;4961501;29;19914;-30
2022/06/03 08:35:31;;;;;;;;;;;;;;;26.44;34.82;101781.88;4978024;28;19922;-33
2022/06/03 08:37:58;;;;;;;;;;;;;;;26.25;33.98;101772.34;4961118;29;19926;-31
2022/06/03 08:40:27;;;;;;;;;;;;;;;26.42;34.88;101763.91;4960928;29;19914;-31
2022/06/03 08:42:55;;;;;;;;;;;;;;;26.55;34.11;101768.16;4961563;29;20014;-31
2022/06/03 08:45:25;;;;;;;;;;;;;;;26.91;34.02;101770.03;4978163;29;19914;-31
2022/06/03 08:47:54;;;;;;;;;;;;;;;27.05;33.32;101764.00;4959972;29;19914;-31
2022/06/03 08:50:27;;;;;;;;;;;;;;;27.02;33.29;101770.06;4960379;29;19914;-32
2022/06/03 08:52:55;;;;;;;;;;;;;;;26.98;33.28;101757.88;4977887;28;20010;-32
2022/06/03 08:55:20;;;;;;;;;;;;;;;27.28;33.38;101763.56;4961461;29;19921;-32
2022/06/03 08:57:45;;;;;;;;;;;;;;;27.79;32.49;101769.16;4978332;29;19914;-32
2022/06/03 09:00:13;;;;;;;;;;;;;;;27.73;31.69;101775.81;4977857;29;19914;-31
2022/06/03 09:02:53;;;;;;;;;;;;;;;27.35;32.89;101769.63;4977874;29;19918;-31
2022/06/03 09:05:20;;;;;;;;;;;;;;;26.97;32.26;101759.81;4976647;29;19914;-30
2022/06/03 09:07:50;;;;;;;;;;;;;;;26.55;33.75;101748.84;4960418;29;19974;-31
2022/06/03 09:10:18;;;;;;;;;;;;;;;26.79;32.96;101755.59;4976136;29;19914;-30
2022/06/03 09:13:03;;;;;;;;;;;;;;;26.74;31.79;101761.09;4959156;29;19914;-32
2022/06/03 09:15:29;;;;;;;;;;;;;;;26.90;32.10;101768.34;4960461;29;19911;-32
2022/06/03 09:17:56;;;;;;;;;;;;;;;27.03;32.26;101761.50;4959431;29;19921;-33
2022/06/03 09:20:28;;;;;;;;;;;;;;;27.42;32.43;101769.38;4959632;29;19949;-32
2022/06/03 09:22:58;;;;;;;;;;;;;;;27.31;31.73;101779.59;4959354;29;19903;-32
2022/06/03 09:25:23;;;;;;;;;;;;;;;27.47;32.19;101769.41;4976860;29;19925;-32
2022/06/03 09:27:48;;;;;;;;;;;;;;;27.73;31.95;101764.75;4943967;29;20021;-32
2022/06/03 09:30:15;;;;;;;;;;;;;;;28.01;30.90;101771.69;4959737;29;19914;-32
2022/06/03 09:32:47;;;;;;;;;;;;;;;27.85;31.23;101771.97;4959831;29;19914;-31
2022/06/03 09:35:13;;;;;;;;;;;;;;;27.54;31.61;101760.81;4957218;29;19926;-33
2022/06/03 09:37:39;;;;;;;;;;;;;;;27.83;30.74;101763.94;4977629;28;19918;-32
2022/06/03 09:40:06;;;;;;;;;;;;;;;28.00;30.21;101766.44;4960824;29;19915;-31
2022/06/03 09:42:32;;;;;;;;;;;;;;;28.07;30.17;101758.69;4961375;29;19915;-31
2022/06/03 09:44:58;;;;;;;;;;;;;;;28.26;30.07;101764.50;4961313;29;19914;-30
2022/06/03 09:47:23;;;;;;;;;;;;;;;28.19;29.24;101767.53;4962066;29;19918;-32
2022/06/03 09:49:49;;;;;;;;;;;;;;;27.74;30.84;101771.91;4978417;29;19906;-31
2022/06/03 09:52:18;;;;;;;;;;;;;;;28.00;30.91;101763.69;4977529;29;19919;-33
2022/06/03 09:54:43;;;;;;;;;;;;;;;28.09;30.81;101767.53;4960236;29;19915;-30
2022/06/03 09:57:15;;;;;;;;;;;;;;;28.23;30.19;101765.06;4960261;29;19998;-31
2022/06/03 09:59:42;;;;;;;;;;;;;;;28.13;30.56;101765.88;4976477;29;20515;-31
2022/06/03 10:02:07;;;;;;;;;;;;;;;28.25;30.70;101773.88;4959736;29;19914;-31
2022/06/03 10:04:32;;;;;;;;;;;;;;;28.44;30.27;101771.41;4976243;28;19989;-32
2022/06/03 10:07:00;;;;;;;;;;;;;;;28.57;30.16;101768.06;4975999;29;19914;-30
2022/06/03 10:17:48;;;;;;;;;;;;;;;28.68;29.28;101763.31;4975386;29;19977;-33
2022/06/03 10:20:13;;;;;;;;;;;;;;;28.44;29.38;101754.81;4959014;29;20401;-33
2022/06/03 10:22:38;;;;;;;;;;;;;;;28.45;29.19;101753.69;4975266;29;19914;-32
2022/06/03 10:25:04;;;;;;;;;;;;;;;28.23;29.71;101757.56;4973795;29;19918;-34
2022/06/03 10:27:30;;;;;;;;;;;;;;;28.17;30.35;101753.16;4974741;29;19977;-32
2022/06/03 10:29:57;;;;;;;;;;;;;;;27.89;29.64;101740.72;4975200;29;19938;-32
2022/06/03 10:32:22;;;;;;;;;;;;;;;27.71;32.56;101744.81;4974863;29;19914;-34
2022/06/03 10:34:47;;;;;;;;;;;;;;;27.99;30.90;101734.34;4973802;28;19981;-33
2022/06/03 10:37:15;;;;;;;;;;;;;;;27.79;31.69;101741.50;4973988;29;19942;-31
2022/06/03 10:39:41;;;;;;;;;;;;;;;27.95;31.79;101727.72;4974043;29;19933;-34
2022/06/03 10:42:06;;;;;;;;;;;;;;;27.81;31.52;101724.69;4975337;29;19915;-32
2022/06/03 10:44:36;;;;;;;;;;;;;;;27.89;31.62;101726.06;4975306;29;19918;-33
2022/06/03 10:47:02;;;;;;;;;;;;;;;28.11;30.82;101737.66;4974475;29;19915;-32
2022/06/03 10:49:29;;;;;;;;;;;;;;;27.67;31.66;101731.81;4975436;29;19902;-33
2022/06/03 11:02:53;;;;;;;;;;;;;;;28.85;28.53;101730.56;4949500;29;19945;-34
2022/06/03 11:05:26;;;;;;;;;;;;;;;28.34;28.98;101727.09;4959334;29;20184;-34
2022/06/03 11:08:02;;;;;;;;;;;;;;;28.24;28.66;101725.19;4947434;29;19918;-33
2022/06/03 11:10:37;;;;;;;;;;;;;;;28.21;29.28;101718.25;4954276;29;19982;-32
2022/06/03 11:13:03;;;;;;;;;;;;;;;28.34;29.85;101733.47;4940351;29;19918;-32
2022/06/03 11:15:33;;;;;;;;;;;;;;;28.45;28.29;101726.81;4941047;29;19969;-32
2022/06/03 11:18:19;;;;;;;;;;;;;;;28.25;29.08;101724.06;4950363;29;19947;-32
2022/06/03 11:20:48;;;;;;;;;;;;;;;28.37;29.35;101713.53;4936778;29;19934;-33
2022/06/03 11:23:13;;;;;;;;;;;;;;;28.11;28.61;101714.69;4949065;29;19919;-32
2022/06/03 11:25:40;;;;;;;;;;;;;;;28.30;29.02;101712.16;4950881;29;19950;-34
2022/06/03 11:28:08;;;;;;;;;;;;;;;28.18;28.51;101727.13;4953085;29;19915;-33
2022/06/03 11:30:35;;;;;;;;;;;;;;;27.49;29.59;101724.88;4951245;29;19957;-32
2022/06/03 11:33:20;;;;;;;;;;;;;;;27.74;30.09;101713.84;4946264;29;19926;-32
2022/06/03 11:35:47;;;;;;;;;;;;;;;28.19;29.34;101717.69;4926805;29;19942;-31
2022/06/03 11:38:14;;;;;;;;;;;;;;;28.57;28.97;101718.22;4927165;29;19958;-32
2022/06/03 11:40:40;;;;;;;;;;;;;;;28.56;29.11;101727.63;4941347;29;19923;-32
2022/06/03 11:43:08;;;;;;;;;;;;;;;28.48;29.87;101725.44;4947260;29;19986;-34
2022/06/03 11:45:40;;;;;;;;;;;;;;;28.67;29.31;101729.25;4941235;29;19926;-33
2022/06/03 11:48:08;;;;;;;;;;;;;;;28.70;28.75;101724.25;4935172;29;19926;-33
2022/06/03 11:50:34;;;;;;;;;;;;;;;28.64;29.34;101724.25;4948500;29;20406;-32
2022/06/03 11:52:59;;;;;;;;;;;;;;;28.74;29.07;101719.81;4952384;29;19919;-33
2022/06/03 11:55:25;;;;;;;;;;;;;;;29.02;28.66;101718.31;4922106;29;19986;-32
2022/06/03 11:58:06;;;;;;;;;;;;;;;29.22;28.34;101722.91;4935737;29;19974;-32
2022/06/03 12:00:32;;;;;;;;;;;;;;;29.42;28.63;101722.78;4925097;29;19926;-33
2022/06/03 12:03:07;;;;;;;;;;;;;;;29.39;28.05;101725.31;4942554;29;20003;-33
2022/06/03 12:05:34;;;;;;;;;;;;;;;29.12;29.02;101723.78;4926380;29;20374;-33
2022/06/03 12:08:07;;;;;;;;;;;;;;;28.67;28.97;101722.88;4924765;29;19919;-32
2022/06/03 12:10:41;;;;;;;;;;;;;;;28.50;29.94;101717.69;4910080;29;19946;-33
2022/06/03 12:13:28;;;;;;;;;;;;;;;28.29;29.14;101718.81;4941899;29;19919;-32
2022/06/03 12:15:53;;;;;;;;;;;;;;;27.99;29.69;101715.81;4929663;29;19919;-33
2022/06/03 12:18:27;;;;;;;;;;;;;;;28.77;28.49;101716.47;4927183;29;19934;-32
2022/06/03 12:20:55;;;;;;;;;;;;;;;29.12;28.38;101726.56;4926544;29;19946;-33
2022/06/03 12:23:20;;;;;;;;;;;;;;;29.03;27.68;101720.78;4927053;29;19926;-32
2022/06/03 12:25:48;;;;;;;;;;;;;;;28.82;29.21;101724.75;4940896;29;19945;-32
2022/06/03 12:28:22;;;;;;;;;;;;;;;28.76;28.99;101715.66;4942761;29;19915;-32
2022/06/03 12:30:54;;;;;;;;;;;;;;;28.55;29.06;101720.44;4930503;29;20055;-32
2022/06/03 12:33:24;;;;;;;;;;;;;;;28.62;30.06;101720.97;4942400;29;19922;-32
2022/06/03 12:35:52;;;;;;;;;;;;;;;28.74;29.40;101711.50;4961593;29;19922;-32
2022/06/03 12:38:20;;;;;;;;;;;;;;;28.95;29.02;101724.13;4949282;29;19950;-33
2022/06/03 12:40:59;;;;;;;;;;;;;;;28.34;29.18;101721.56;4928874;29;20232;-33
2022/06/03 12:43:30;;;;;;;;;;;;;;;28.16;30.25;101718.28;4946002;29;19915;-33
2022/06/03 12:45:58;;;;;;;;;;;;;;;28.09;29.70;101712.19;4945726;29;19977;-33
2022/06/03 12:48:35;;;;;;;;;;;;;;;28.09;30.00;101712.19;4945878;29;19954;-32
2022/06/03 12:51:09;;;;;;;;;;;;;;;28.58;29.47;101714.31;4950268;29;20298;-33
2022/06/03 12:53:35;;;;;;;;;;;;;;;28.81;29.13;101720.34;4963275;29;19915;-33
2022/06/03 12:56:02;;;;;;;;;;;;;;;28.48;29.86;101719.88;4959058;29;19922;-33
2022/06/03 12:58:27;;;;;;;;;;;;;;;28.48;29.55;101714.34;4952196;29;19918;-33
2022/06/03 13:00:56;;;;;;;;;;;;;;;28.50;28.60;101728.75;4949350;29;20469;-32
2022/06/03 13:03:24;;;;;;;;;;;;;;;27.76;29.64;101717.16;4960818;28;20007;-32
2022/06/03 13:05:53;;;;;;;;;;;;;;;27.63;30.18;101719.66;4947560;29;19918;-32
2022/06/03 13:08:27;;;;;;;;;;;;;;;27.54;30.98;101700.84;4958897;28;19966;-32
2022/06/03 13:10:52;;;;;;;;;;;;;;;27.86;30.98;101707.22;4944694;29;20010;-32
2022/06/03 13:13:28;;;;;;;;;;;;;;;28.12;30.60;101708.88;4956171;29;20362;-33
2022/06/03 13:15:53;;;;;;;;;;;;;;;28.38;30.38;101708.81;4961282;29;19918;-34
2022/06/03 13:18:35;;;;;;;;;;;;;;;28.42;29.45;101715.44;4955605;29;19915;-33
2022/06/03 13:21:00;;;;;;;;;;;;;;;27.97;30.52;101715.25;4944462;29;19974;-31
2022/06/03 13:23:25;;;;;;;;;;;;;;;27.88;30.19;101705.84;4944682;29;19957;-31
2022/06/03 13:25:51;;;;;;;;;;;;;;;27.93;30.02;101697.53;4943867;29;19925;-33
2022/06/03 13:28:19;;;;;;;;;;;;;;;27.85;30.45;101700.03;4944626;29;20053;-31
2022/06/03 13:30:48;;;;;;;;;;;;;;;27.91;30.25;101702.53;4945140;29;19922;-32